Terminal Aerodrome Forecast
Issued by NWS

Home | Current Version | Previous Version | Text Only | Print | Product List | Glossary On
Versions: 1 2 3 4 5 6 7 8 9 10 11 12 13 14 15 16 17 18 19 20 21 22 23
581
FTUS45 KREV 192329
TAFCXP
TAF
KCXP 192329Z 2000/2024 23016G30KT P6SM SCT090 BKN150
     FM200300 22011G19KT P6SM SCT070 BKN110
     FM200800 20011G18KT 5SM -RA SCT035 OVC070
     FM201200 20015G28KT 4SM RA SCT015 OVC028 WS020/25045KT
     FM201900 18025G35KT 3SM RA BKN015 OVC020 WS010/25070KT
      AMD NOT SKED=

USA.gov is the U.S. government's official web portal to all federal, state and local government web resources and services.